createdAt,value
2023-01-30T00:00:25.439Z,98669.66
2023-01-30T00:02:51.723Z,98675.56
2023-01-30T00:05:18.152Z,98673.78
2023-01-30T00:07:44.513Z,98669.66
2023-01-30T00:10:11.274Z,98659.47
2023-01-30T00:12:37.601Z,98646.44
2023-01-30T00:15:04.357Z,98639.56
2023-01-30T00:17:30.627Z,98642.19
2023-01-30T00:19:56.959Z,98637.81
2023-01-30T00:22:23.460Z,98617.91
2023-01-30T00:24:49.863Z,98615.09
2023-01-30T00:27:16.611Z,98610.72
2023-01-30T00:29:45.667Z,98610.00
2023-01-30T00:32:15.596Z,98613.53
2023-01-30T00:34:41.875Z,98613.53
2023-01-30T00:37:08.784Z,98613.31
2023-01-30T00:39:35.134Z,98614.84
2023-01-30T00:42:01.435Z,98620.91
2023-01-30T00:44:27.804Z,98626.81
2023-01-30T00:46:54.130Z,98638.06
2023-01-30T00:49:20.448Z,98653.34
2023-01-30T00:51:47.219Z,98657.41
2023-01-30T00:54:13.533Z,98668.09
2023-01-30T00:56:39.797Z,98669.88
2023-01-30T00:59:06.124Z,98675.97
2023-01-30T01:01:32.460Z,98683.94
2023-01-30T01:03:58.856Z,98682.69
2023-01-30T01:06:25.138Z,98690.31
2023-01-30T01:08:51.508Z,98684.03
2023-01-30T01:11:17.783Z,98685.59
2023-01-30T01:13:44.058Z,98673.03
2023-01-30T01:16:10.463Z,98672.66
2023-01-30T01:18:36.813Z,98663.88
2023-01-30T01:21:03.404Z,98660.28
2023-01-30T01:23:29.696Z,98660.16
2023-01-30T01:25:55.983Z,98661.19
2023-01-30T01:28:22.299Z,98657.00
2023-01-30T01:30:48.754Z,98653.41
2023-01-30T01:33:15.161Z,98651.25
2023-01-30T01:35:41.532Z,98659.06
2023-01-30T01:38:07.844Z,98662.56
2023-01-30T01:40:34.180Z,98660.97
2023-01-30T01:43:00.472Z,98653.78
2023-01-30T01:45:26.789Z,98633.75
2023-01-30T01:48:05.633Z,98627.88
2023-01-30T01:50:53.332Z,98613.19
2023-01-30T01:53:24.611Z,98608.59
2023-01-30T01:55:56.068Z,98597.19
2023-01-30T01:58:28.016Z,98599.03
2023-01-30T02:00:57.840Z,98602.38
2023-01-30T02:03:26.339Z,98599.75
2023-01-30T02:05:57.059Z,98599.94
2023-01-30T02:08:29.140Z,98587.81
2023-01-30T02:11:17.520Z,98573.63
2023-01-30T02:13:45.269Z,98566.31
2023-01-30T02:16:11.638Z,98568.69
2023-01-30T02:18:41.411Z,98561.13
2023-01-30T02:21:10.470Z,98544.16
2023-01-30T02:23:59.541Z,98556.28
2023-01-30T02:26:47.530Z,98536.56
2023-01-30T02:29:46.962Z,98551.19
2023-01-30T02:32:41.128Z,98529.53
2023-01-30T02:35:26.080Z,98505.13
2023-01-30T02:38:04.334Z,98502.91
2023-01-30T02:41:08.412Z,98477.25
2023-01-30T02:44:15.335Z,98478.09
2023-01-30T02:46:46.382Z,98491.88
2023-01-30T02:49:41.410Z,98509.66
2023-01-30T02:52:11.356Z,98498.78
2023-01-30T02:54:37.636Z,98494.75
2023-01-30T02:57:04.149Z,98492.13
2023-01-30T02:59:35.134Z,98494.59
2023-01-30T03:02:21.763Z,98492.66
2023-01-30T03:05:08.543Z,98487.00
2023-01-30T03:07:53.550Z,98482.16
2023-01-30T03:10:38.006Z,98469.72
2023-01-30T03:13:20.633Z,98463.53
2023-01-30T03:15:54.451Z,98457.72
2023-01-30T03:18:21.409Z,98460.75
2023-01-30T03:20:48.429Z,98452.75
2023-01-30T03:23:14.809Z,98425.41
2023-01-30T03:25:43.242Z,98430.66
2023-01-30T03:28:10.890Z,98428.31
2023-01-30T03:30:37.302Z,98423.09
2023-01-30T03:33:03.703Z,98422.97
2023-01-30T03:35:30.259Z,98411.66
2023-01-30T03:37:58.115Z,98417.03
2023-01-30T03:40:24.615Z,98406.25
2023-01-30T03:42:50.910Z,98425.56
2023-01-30T03:45:17.527Z,98423.03
2023-01-30T03:47:43.951Z,98418.16
2023-01-30T03:50:10.744Z,98422.56
2023-01-30T03:52:37.248Z,98422.94
2023-01-30T03:55:04.210Z,98410.22
2023-01-30T03:57:30.575Z,98408.09
2023-01-30T03:59:57.019Z,98406.16
2023-01-30T04:02:23.393Z,98407.97
2023-01-30T04:04:49.838Z,98397.16
2023-01-30T04:07:16.245Z,98402.25
2023-01-30T04:09:42.631Z,98403.78
2023-01-30T04:12:09.053Z,98412.88
2023-01-30T04:14:35.331Z,98406.94
2023-01-30T04:17:01.846Z,98408.59
2023-01-30T04:19:28.123Z,98412.50
2023-01-30T04:21:54.394Z,98409.88
2023-01-30T04:24:20.706Z,98422.16
2023-01-30T04:26:47.062Z,98424.63
2023-01-30T04:29:13.367Z,98425.31
2023-01-30T04:31:39.755Z,98409.56
2023-01-30T04:34:06.595Z,98413.69
2023-01-30T04:36:32.877Z,98416.16
2023-01-30T04:38:59.274Z,98410.91
2023-01-30T04:41:25.592Z,98411.75
2023-01-30T04:43:51.866Z,98410.47
2023-01-30T04:46:18.161Z,98413.78
2023-01-30T04:48:44.432Z,98413.25
2023-01-30T04:51:10.972Z,98410.63
2023-01-30T04:53:37.312Z,98410.63
2023-01-30T04:56:03.855Z,98412.28
2023-01-30T04:58:30.153Z,98418.03
2023-01-30T05:00:56.569Z,98415.41
2023-01-30T05:03:22.911Z,98413.63
2023-01-30T05:05:49.287Z,98404.31
2023-01-30T05:08:15.909Z,98391.44
2023-01-30T05:10:42.195Z,98383.31
2023-01-30T05:13:08.574Z,98372.75
2023-01-30T05:15:34.945Z,98375.53
2023-01-30T05:18:01.217Z,98371.84
2023-01-30T05:20:27.673Z,98365.41
2023-01-30T05:22:53.974Z,98370.66
2023-01-30T05:25:20.594Z,98365.69
2023-01-30T05:27:47.054Z,98364.84
2023-01-30T05:30:13.460Z,98352.56
2023-01-30T05:32:39.742Z,98340.28
2023-01-30T05:35:06.709Z,98347.16
2023-01-30T05:37:33.103Z,98354.78
2023-01-30T05:39:59.486Z,98363.47
2023-01-30T05:42:25.784Z,98363.16
2023-01-30T05:44:52.449Z,98368.09
2023-01-30T05:47:18.738Z,98367.59
2023-01-30T05:49:45.097Z,98365.13
2023-01-30T05:52:11.447Z,98364.13
2023-01-30T05:54:37.732Z,98370.34
2023-01-30T05:57:04.162Z,98359.34
2023-01-30T05:59:30.448Z,98355.84
2023-01-30T06:01:56.753Z,98357.38
2023-01-30T06:04:23.098Z,98355.44
2023-01-30T06:06:50.108Z,98331.41
2023-01-30T06:09:16.549Z,98325.34
2023-01-30T06:11:42.929Z,98333.22
2023-01-30T06:14:09.282Z,98339.44
2023-01-30T06:16:35.577Z,98336.97
2023-01-30T06:19:02.005Z,98343.34
2023-01-30T06:21:28.268Z,98330.06
2023-01-30T06:23:54.576Z,98335.03
2023-01-30T06:26:20.940Z,98335.03
2023-01-30T06:28:47.229Z,98329.41
2023-01-30T06:31:13.571Z,98332.69
2023-01-30T06:33:40.002Z,98337.78
2023-01-30T06:36:06.755Z,98333.78
2023-01-30T06:38:33.044Z,98337.75
2023-01-30T06:40:59.343Z,98338.41
2023-01-30T06:43:25.717Z,98333.84
2023-01-30T06:45:52.014Z,98340.88
2023-01-30T06:48:19.515Z,98343.22
2023-01-30T06:50:46.867Z,98350.25
2023-01-30T06:53:13.563Z,98348.75
2023-01-30T06:55:39.857Z,98339.75
2023-01-30T06:58:08.882Z,98334.34
2023-01-30T07:00:36.361Z,98331.88
2023-01-30T07:03:02.807Z,98335.25
2023-01-30T07:05:29.111Z,98342.91
2023-01-30T07:07:55.721Z,98339.66
2023-01-30T07:10:22.201Z,98338.63
2023-01-30T07:12:48.526Z,98332.00
2023-01-30T07:15:15.057Z,98335.38
2023-01-30T07:17:41.968Z,98336.22
2023-01-30T07:20:09.875Z,98335.22
2023-01-30T07:22:36.106Z,98335.66
2023-01-30T07:25:02.328Z,98334.38
2023-01-30T07:27:28.654Z,98329.97
2023-01-30T07:29:54.929Z,98329.63
2023-01-30T07:32:21.230Z,98336.34
2023-01-30T07:34:47.592Z,98319.66
2023-01-30T07:37:14.452Z,98306.91
2023-01-30T07:39:41.025Z,98312.41
2023-01-30T07:42:07.593Z,98301.59
2023-01-30T07:44:34.031Z,98289.41
2023-01-30T07:47:01.182Z,98310.75
2023-01-30T07:49:27.662Z,98304.38
2023-01-30T07:51:53.965Z,98292.13
2023-01-30T07:54:20.404Z,98284.63
2023-01-30T07:56:46.709Z,98260.09
2023-01-30T07:59:13.209Z,98258.75
2023-01-30T08:01:39.507Z,98256.03
2023-01-30T08:04:05.832Z,98260.50
2023-01-30T08:06:32.239Z,98249.19
2023-01-30T08:08:58.567Z,98253.38
2023-01-30T08:11:24.845Z,98254.19
2023-01-30T08:13:51.151Z,98239.94
2023-01-30T08:16:17.570Z,98246.00
2023-01-30T08:18:43.887Z,98249.03
2023-01-30T08:21:10.189Z,98245.19
2023-01-30T08:23:36.509Z,98248.78
2023-01-30T08:26:04.900Z,98232.19
2023-01-30T08:28:31.325Z,98236.31
2023-01-30T08:30:58.063Z,98231.91
2023-01-30T08:33:25.372Z,98236.47
2023-01-30T08:35:51.750Z,98222.53
2023-01-30T08:38:18.455Z,98234.53
2023-01-30T08:40:44.794Z,98220.72
2023-01-30T08:43:11.125Z,98218.63
2023-01-30T08:45:37.477Z,98225.16
2023-01-30T08:48:05.875Z,98215.13
2023-01-30T08:50:33.356Z,98228.28
2023-01-30T08:53:07.502Z,98213.47
2023-01-30T08:55:33.867Z,98193.78
2023-01-30T08:58:00.192Z,98198.38
2023-01-30T09:00:27.623Z,98195.25
2023-01-30T09:02:57.835Z,98189.66
2023-01-30T09:05:24.988Z,98208.41
2023-01-30T09:07:51.568Z,98207.56
2023-01-30T09:10:18.509Z,98207.41
2023-01-30T09:12:45.037Z,98204.88
2023-01-30T09:15:11.395Z,98224.31
2023-01-30T09:17:37.754Z,98215.47
2023-01-30T09:20:09.342Z,98217.94
2023-01-30T09:22:35.695Z,98207.25
2023-01-30T09:25:01.991Z,98218.75
2023-01-30T09:27:28.356Z,98204.50
2023-01-30T09:29:54.678Z,98206.59
2023-01-30T09:32:21.153Z,98205.28
2023-01-30T09:34:47.663Z,98214.97
2023-01-30T09:37:14.691Z,98206.09
2023-01-30T09:39:40.963Z,98190.41
2023-01-30T09:42:35.944Z,98179.91
2023-01-30T09:45:27.875Z,98183.50
2023-01-30T09:48:13.528Z,98184.38
2023-01-30T09:51:26.869Z,98202.97
2023-01-30T09:54:07.269Z,98193.09
2023-01-30T09:56:33.574Z,98186.53
2023-01-30T09:59:02.896Z,98181.44
2023-01-30T10:01:39.251Z,98188.06
2023-01-30T10:04:32.208Z,98180.84
2023-01-30T10:07:10.504Z,98179.38
2023-01-30T10:09:39.756Z,98184.97
2023-01-30T10:12:30.782Z,98171.81
2023-01-30T10:15:19.315Z,98153.59
2023-01-30T10:17:45.562Z,98152.13
2023-01-30T10:20:45.181Z,98155.25
2023-01-30T10:23:36.514Z,98143.09
2023-01-30T10:26:13.273Z,98155.06
2023-01-30T10:29:08.345Z,98161.84
2023-01-30T10:31:44.820Z,98163.47
2023-01-30T10:34:32.606Z,98161.19
2023-01-30T10:37:06.453Z,98144.06
2023-01-30T10:39:55.303Z,98144.75
2023-01-30T10:42:43.682Z,98138.63
2023-01-30T10:45:21.198Z,98144.72
2023-01-30T10:47:54.676Z,98150.16
2023-01-30T10:50:37.439Z,98152.81
2023-01-30T10:53:26.905Z,98156.25
2023-01-30T10:56:54.992Z,98152.31
2023-01-30T10:59:26.343Z,98154.59
2023-01-30T11:01:58.822Z,98157.41
2023-01-30T11:04:30.969Z,98161.34
2023-01-30T11:06:59.968Z,98153.63
2023-01-30T11:09:41.766Z,98153.44
2023-01-30T11:12:08.218Z,98146.34
2023-01-30T11:14:58.399Z,98138.47
2023-01-30T11:17:40.427Z,98147.34
2023-01-30T11:20:19.680Z,98145.72
2023-01-30T11:22:51.928Z,98154.78
2023-01-30T11:25:22.451Z,98139.78
2023-01-30T11:28:03.141Z,98146.34
2023-01-30T11:30:36.681Z,98147.19
2023-01-30T11:33:12.370Z,98148.03
2023-01-30T11:35:51.112Z,98137.00
2023-01-30T11:38:22.279Z,98137.81
2023-01-30T11:40:48.747Z,98138.97
2023-01-30T11:43:15.271Z,98132.22
2023-01-30T11:45:46.961Z,98134.88
2023-01-30T11:48:31.526Z,98135.34
2023-01-30T11:51:06.069Z,98140.78
2023-01-30T11:53:40.084Z,98127.78
2023-01-30T11:56:15.895Z,98130.91
2023-01-30T11:58:43.590Z,98137.59
2023-01-30T12:01:10.268Z,98126.63
2023-01-30T12:03:52.595Z,98126.28
2023-01-30T12:06:30.999Z,98135.81
2023-01-30T12:08:57.701Z,98126.59
2023-01-30T12:11:26.049Z,98121.19
2023-01-30T12:13:55.671Z,98126.59
2023-01-30T12:16:53.633Z,98135.00
2023-01-30T12:19:42.868Z,98136.13
2023-01-30T12:22:20.826Z,98143.38
2023-01-30T12:24:57.636Z,98148.31
2023-01-30T12:27:51.883Z,98142.22
2023-01-30T12:30:42.760Z,98140.56
2023-01-30T12:33:13.250Z,98134.97
2023-01-30T12:35:47.990Z,98136.47
2023-01-30T12:38:42.154Z,98131.69
2023-01-30T12:41:28.934Z,98125.56
2023-01-30T12:44:13.440Z,98127.38
2023-01-30T12:47:04.015Z,98125.38
2023-01-30T12:49:38.599Z,98117.13
2023-01-30T12:52:23.921Z,98121.91
2023-01-30T12:55:06.053Z,98115.47
2023-01-30T12:57:41.409Z,98133.63
2023-01-30T13:00:29.717Z,98133.44
2023-01-30T13:03:06.820Z,98129.81
2023-01-30T13:06:14.966Z,98145.75
2023-01-30T13:09:25.669Z,98138.63
2023-01-30T13:12:05.855Z,98133.44
2023-01-30T13:14:51.926Z,98120.09
2023-01-30T13:17:25.358Z,98119.03
2023-01-30T13:20:16.957Z,98109.44
2023-01-30T13:23:04.096Z,98120.00
2023-01-30T13:25:34.097Z,98118.22
2023-01-30T13:28:06.724Z,98126.94
2023-01-30T13:30:34.461Z,98138.50
2023-01-30T13:33:19.048Z,98156.41
2023-01-30T13:35:50.949Z,98139.50
2023-01-30T13:38:22.330Z,98141.16
2023-01-30T13:40:50.665Z,98139.09
2023-01-30T13:43:31.286Z,98142.06
2023-01-30T13:46:01.923Z,98142.72
2023-01-30T13:48:48.954Z,98147.94
2023-01-30T13:51:49.254Z,98152.59
2023-01-30T13:54:21.808Z,98164.13
2023-01-30T13:56:57.594Z,98146.19
2023-01-30T14:00:02.729Z,98137.47
2023-01-30T14:02:29.156Z,98142.22
2023-01-30T14:04:57.125Z,98125.78
2023-01-30T14:07:52.575Z,98121.88
2023-01-30T14:10:21.013Z,98116.09
2023-01-30T14:12:51.147Z,98120.63
2023-01-30T14:15:17.716Z,98121.84
2023-01-30T14:18:23.260Z,98105.78
2023-01-30T14:20:51.300Z,98101.41
2023-01-30T14:23:33.182Z,98119.03
2023-01-30T14:25:59.974Z,98147.38
2023-01-30T14:28:29.065Z,98107.31
2023-01-30T14:30:57.888Z,98120.72
2023-01-30T14:33:24.135Z,98116.47
2023-01-30T14:36:02.756Z,98139.53
2023-01-30T14:38:33.783Z,98160.75
2023-01-30T14:40:59.995Z,98155.31
2023-01-30T14:43:46.346Z,98145.75
2023-01-30T14:46:32.626Z,98148.41
2023-01-30T14:49:29.464Z,98159.38
2023-01-30T14:51:56.180Z,98173.31
2023-01-30T14:54:41.331Z,98167.53
2023-01-30T14:57:19.062Z,98177.25
2023-01-30T14:59:45.267Z,98190.69
2023-01-30T15:02:14.691Z,98188.22
2023-01-30T15:04:50.487Z,98181.41
2023-01-30T15:07:24.415Z,98175.19
2023-01-30T15:09:57.067Z,98176.94
2023-01-30T15:12:52.546Z,98174.75
2023-01-30T15:15:40.442Z,98176.78
2023-01-30T15:18:39.985Z,98176.97
2023-01-30T15:21:33.678Z,98195.59
2023-01-30T15:24:27.704Z,98204.69
2023-01-30T15:27:30.635Z,98204.66
2023-01-30T15:30:04.237Z,98215.41
2023-01-30T15:32:32.935Z,98222.59
2023-01-30T15:35:22.726Z,98241.41
2023-01-30T15:37:54.272Z,98246.34
2023-01-30T15:40:23.086Z,98236.44
2023-01-30T15:43:01.395Z,98242.84
2023-01-30T15:45:40.531Z,98261.97
2023-01-30T15:48:34.952Z,98272.72
2023-01-30T15:51:02.882Z,98274.34
2023-01-30T15:53:36.018Z,98268.88
2023-01-30T15:56:07.365Z,98267.75
2023-01-30T15:58:40.944Z,98264.97
2023-01-30T16:01:08.316Z,98259.84
2023-01-30T16:03:40.730Z,98263.16
2023-01-30T16:06:07.418Z,98274.19
2023-01-30T16:08:35.729Z,98270.56
2023-01-30T16:11:02.604Z,98278.13
2023-01-30T16:13:30.405Z,98278.31
2023-01-30T16:16:05.611Z,98269.25
2023-01-30T16:18:38.495Z,98284.91
2023-01-30T16:21:09.462Z,98287.53
2023-01-30T16:23:40.883Z,98286.03
2023-01-30T16:26:16.054Z,98290.00
2023-01-30T16:28:42.451Z,98306.63
2023-01-30T16:31:10.423Z,98309.91
2023-01-30T16:33:37.988Z,98316.19
2023-01-30T16:36:06.557Z,98333.81
2023-01-30T16:38:45.162Z,98333.78
2023-01-30T16:41:30.198Z,98336.59
2023-01-30T16:44:23.992Z,98333.13
2023-01-30T16:47:11.976Z,98330.81
2023-01-30T16:49:45.705Z,98336.44
2023-01-30T16:52:20.896Z,98358.00
2023-01-30T16:54:51.084Z,98347.16
2023-01-30T16:57:34.102Z,98365.25
2023-01-30T17:00:00.923Z,98364.25
2023-01-30T17:02:34.525Z,98371.19
2023-01-30T17:05:40.230Z,98364.44
2023-01-30T17:08:45.060Z,98365.41
2023-01-30T17:11:29.992Z,98375.31
2023-01-30T17:14:10.797Z,98363.31
2023-01-30T17:16:37.250Z,98371.19
2023-01-30T17:19:03.516Z,98378.78
2023-01-30T17:21:36.018Z,98378.78
2023-01-30T17:24:04.692Z,98376.94
2023-01-30T17:26:32.002Z,98384.03
2023-01-30T17:28:58.945Z,98392.44
2023-01-30T17:31:25.443Z,98391.63
2023-01-30T17:33:51.880Z,98396.88
2023-01-30T17:36:23.849Z,98398.69
2023-01-30T17:38:50.541Z,98400.69
2023-01-30T17:41:22.451Z,98406.78
2023-01-30T17:43:49.920Z,98397.38
2023-01-30T17:46:17.678Z,98395.75
2023-01-30T17:48:44.691Z,98408.25
2023-01-30T17:51:10.977Z,98394.41
2023-01-30T17:53:37.344Z,98405.94
2023-01-30T17:56:03.963Z,98401.00
2023-01-30T17:58:30.286Z,98413.19
2023-01-30T18:00:56.549Z,98409.09
2023-01-30T18:03:22.939Z,98417.16
2023-01-30T18:05:49.222Z,98420.44
2023-01-30T18:08:15.577Z,98420.13
2023-01-30T18:10:42.115Z,98433.28
2023-01-30T18:13:08.416Z,98432.16
2023-01-30T18:15:34.724Z,98428.69
2023-01-30T18:18:01.148Z,98442.34
2023-01-30T18:20:27.454Z,98456.34
2023-01-30T18:22:53.835Z,98451.56
2023-01-30T18:25:20.673Z,98456.53
2023-01-30T18:27:47.346Z,98467.06
2023-01-30T18:30:17.438Z,98463.09
2023-01-30T18:32:53.030Z,98476.94
2023-01-30T18:35:21.124Z,98483.72
2023-01-30T18:37:47.487Z,98479.75
2023-01-30T18:40:13.901Z,98473.50
2023-01-30T18:42:40.186Z,98480.91
2023-01-30T18:45:06.943Z,98476.94
2023-01-30T18:47:33.220Z,98501.31
2023-01-30T18:49:59.492Z,98496.88
2023-01-30T18:52:25.804Z,98493.41
2023-01-30T18:54:52.199Z,98493.91
2023-01-30T18:57:18.498Z,98500.66
2023-01-30T18:59:44.855Z,98500.66
2023-01-30T19:02:11.979Z,98513.03
2023-01-30T19:04:38.415Z,98517.78
2023-01-30T19:07:05.116Z,98525.22
2023-01-30T19:09:31.425Z,98523.91
2023-01-30T19:11:57.710Z,98531.63
2023-01-30T19:14:24.131Z,98525.22
2023-01-30T19:16:50.421Z,98534.78
2023-01-30T19:19:17.535Z,98538.22
2023-01-30T19:21:43.961Z,98544.00
2023-01-30T19:24:13.566Z,98542.84
2023-01-30T19:26:40.372Z,98540.69
2023-01-30T19:29:06.756Z,98543.00
2023-01-30T19:31:33.434Z,98549.59
2023-01-30T19:34:01.681Z,98555.53
2023-01-30T19:36:30.260Z,98565.25
2023-01-30T19:38:59.306Z,98563.25
2023-01-30T19:41:30.587Z,98563.25
2023-01-30T19:43:59.043Z,98571.00
2023-01-30T19:46:26.119Z,98552.19
2023-01-30T19:48:52.571Z,98555.13
2023-01-30T19:51:30.723Z,98553.97
2023-01-30T19:54:00.210Z,98557.59
2023-01-30T19:56:27.748Z,98556.78
2023-01-30T19:58:55.946Z,98547.56
2023-01-30T20:01:25.277Z,98551.34
2023-01-30T20:03:51.568Z,98553.47
2023-01-30T20:06:20.734Z,98558.31
2023-01-30T20:08:48.955Z,98565.84
2023-01-30T20:11:17.340Z,98554.16
2023-01-30T20:13:45.338Z,98566.03
2023-01-30T20:16:15.194Z,98564.84
2023-01-30T20:18:42.124Z,98575.41
2023-01-30T20:21:14.250Z,98576.88
2023-01-30T20:23:40.621Z,98571.94
2023-01-30T20:26:09.277Z,98585.97
2023-01-30T20:28:36.578Z,98582.03
2023-01-30T20:31:12.156Z,98575.75
2023-01-30T20:33:39.142Z,98594.34
2023-01-30T20:36:08.362Z,98585.31
2023-01-30T20:38:37.188Z,98592.69
2023-01-30T20:41:05.362Z,98603.44
2023-01-30T20:43:35.710Z,98609.69
2023-01-30T20:46:11.154Z,98616.94
2023-01-30T20:48:38.546Z,98605.41
2023-01-30T20:51:07.497Z,98613.00
2023-01-30T20:53:34.766Z,98619.09
2023-01-30T20:56:01.475Z,98614.50
2023-01-30T20:58:28.593Z,98616.97
2023-01-30T21:00:55.212Z,98617.59
2023-01-30T21:03:24.609Z,98614.66
2023-01-30T21:05:58.056Z,98625.50
2023-01-30T21:08:25.046Z,98612.69
2023-01-30T21:10:51.339Z,98617.78
2023-01-30T21:13:17.628Z,98624.03
2023-01-30T21:15:43.975Z,98623.88
2023-01-30T21:18:10.268Z,98642.50
2023-01-30T21:20:36.557Z,98626.34
2023-01-30T21:23:03.074Z,98628.34
2023-01-30T21:25:29.557Z,98634.59
2023-01-30T21:27:55.947Z,98652.38
2023-01-30T21:30:22.317Z,98663.09
2023-01-30T21:32:48.649Z,98655.34
2023-01-30T21:35:14.917Z,98645.13
2023-01-30T21:37:41.209Z,98639.03
2023-01-30T21:40:09.718Z,98646.31
2023-01-30T21:42:35.995Z,98663.78
2023-01-30T21:45:03.013Z,98678.59
2023-01-30T21:47:29.270Z,98675.66
2023-01-30T21:49:55.664Z,98674.00
2023-01-30T21:52:22.008Z,98685.91
2023-01-30T21:54:48.280Z,98695.09
2023-01-30T21:57:14.636Z,98692.44
2023-01-30T21:59:40.915Z,98701.34
2023-01-30T22:02:07.225Z,98696.44
2023-01-30T22:04:34.615Z,98690.69
2023-01-30T22:07:00.880Z,98699.59
2023-01-30T22:09:27.255Z,98702.22
2023-01-30T22:11:53.786Z,98712.78
2023-01-30T22:14:20.095Z,98709.63
2023-01-30T22:16:46.423Z,98706.13
2023-01-30T22:19:12.726Z,98707.81
2023-01-30T22:21:40.195Z,98712.25
2023-01-30T22:24:08.568Z,98719.63
2023-01-30T22:26:35.233Z,98715.34
2023-01-30T22:29:04.682Z,98717.16
2023-01-30T22:31:36.330Z,98713.03
2023-01-30T22:34:04.181Z,98713.03
2023-01-30T22:36:31.516Z,98713.03
2023-01-30T22:38:57.794Z,98717.00
2023-01-30T22:41:26.222Z,98722.59
2023-01-30T22:43:57.201Z,98717.78
2023-01-30T22:46:28.813Z,98718.09
2023-01-30T22:48:55.129Z,98713.81
2023-01-30T22:51:23.764Z,98725.66
2023-01-30T22:53:55.404Z,98722.19
2023-01-30T22:56:24.703Z,98725.00
2023-01-30T22:58:51.532Z,98725.66
2023-01-30T23:01:21.080Z,98724.00
2023-01-30T23:03:52.054Z,98736.25
2023-01-30T23:06:18.411Z,98746.59
2023-01-30T23:08:47.351Z,98744.63
2023-01-30T23:11:24.778Z,98743.13
2023-01-30T23:13:53.801Z,98741.63
2023-01-30T23:16:24.383Z,98753.00
2023-01-30T23:18:51.158Z,98747.78
2023-01-30T23:21:18.286Z,98752.69
2023-01-30T23:23:45.457Z,98751.03
2023-01-30T23:26:12.841Z,98756.00
2023-01-30T23:28:39.838Z,98748.09
2023-01-30T23:31:08.704Z,98751.84
2023-01-30T23:33:35.526Z,98746.78
2023-01-30T23:36:08.066Z,98753.34
2023-01-30T23:38:34.583Z,98750.06
2023-01-30T23:41:12.937Z,98753.34
2023-01-30T23:43:41.113Z,98766.38
2023-01-30T23:46:14.842Z,98758.31
2023-01-30T23:48:42.048Z,98769.00
2023-01-30T23:51:08.408Z,98760.13
2023-01-30T23:53:35.157Z,98754.84
2023-01-30T23:56:02.576Z,98752.38
2023-01-30T23:58:28.849Z,98760.13
